sensor_id;sensor_type;location;lat;lon;timestamp;P1;durP1;ratioP1;P2;durP2;ratioP2
40527;SDS011;26230;51.268;6.534;2024-01-10T00:00:00;22.6;;;20.4;;
40527;SDS011;26230;51.268;6.534;2024-01-10T00:10:02;22.6;;;20.4;;
40527;SDS011;26230;51.268;6.534;2024-01-10T00:20:00;25.8;;;19.8;;
40527;SDS011;26230;51.268;6.534;2024-01-10T00:30:00;19.0;;;17.0;;
40527;SDS011;26230;51.268;6.534;2024-01-10T00:40:01;19.0;;;17.0;;
40527;SDS011;26230;51.268;6.534;2024-01-10T00:50:00;21.0;;;19.0;;
40527;SDS011;26230;51.268;6.534;2024-01-10T01:00:04;21.0;;;19.2;;
40527;SDS011;26230;51.268;6.534;2024-01-10T01:10:00;21.0;;;19.2;;
40527;SDS011;26230;51.268;6.534;2024-01-10T01:20:00;19.7;;;17.8;;
40527;SDS011;26230;51.268;6.534;2024-01-10T01:30:00;19.9;;;18.0;;
40527;SDS011;26230;51.268;6.534;2024-01-10T01:40:00;19.9;;;18.0;;
40527;SDS011;26230;51.268;6.534;2024-01-10T01:50:03;22.6;;;20.3;;
40527;SDS011;26230;51.268;6.534;2024-01-10T02:00:01;18.9;;;16.9;;
40527;SDS011;26230;51.268;6.534;2024-01-10T02:10:01;18.9;;;16.9;;
40527;SDS011;26230;51.268;6.534;2024-01-10T02:20:17;22.5;;;20.1;;
40527;SDS011;26230;51.268;6.534;2024-01-10T02:30:02;23.0;;;20.9;;
40527;SDS011;26230;51.268;6.534;2024-01-10T02:40:00;23.0;;;20.9;;
40527;SDS011;26230;51.268;6.534;2024-01-10T02:50:01;22.4;;;20.1;;
40527;SDS011;26230;51.268;6.534;2024-01-10T03:00:00;20.9;;;19.1;;
40527;SDS011;26230;51.268;6.534;2024-01-10T03:10:00;20.9;;;19.1;;
40527;SDS011;26230;51.268;6.534;2024-01-10T03:20:00;22.2;;;19.9;;
40527;SDS011;26230;51.268;6.534;2024-01-10T03:30:00;28.5;;;20.1;;
40527;SDS011;26230;51.268;6.534;2024-01-10T03:40:01;28.5;;;20.1;;
40527;SDS011;26230;51.268;6.534;2024-01-10T03:50:01;22.2;;;19.8;;
40527;SDS011;26230;51.268;6.534;2024-01-10T04:00:03;21.2;;;19.2;;
40527;SDS011;26230;51.268;6.534;2024-01-10T04:10:00;21.2;;;19.2;;
40527;SDS011;26230;51.268;6.534;2024-01-10T04:20:02;23.7;;;21.4;;
40527;SDS011;26230;51.268;6.534;2024-01-10T04:30:00;22.5;;;20.4;;
40527;SDS011;26230;51.268;6.534;2024-01-10T04:40:00;22.5;;;20.4;;
40527;SDS011;26230;51.268;6.534;2024-01-10T04:50:01;23.4;;;20.7;;
40527;SDS011;26230;51.268;6.534;2024-01-10T05:00:02;21.6;;;19.5;;
40527;SDS011;26230;51.268;6.534;2024-01-10T05:10:01;21.6;;;19.5;;
40527;SDS011;26230;51.268;6.534;2024-01-10T05:20:01;22.2;;;19.8;;
40527;SDS011;26230;51.268;6.534;2024-01-10T05:30:00;24.6;;;22.1;;
40527;SDS011;26230;51.268;6.534;2024-01-10T05:40:01;24.6;;;22.1;;
40527;SDS011;26230;51.268;6.534;2024-01-10T05:50:00;22.7;;;20.5;;
40527;SDS011;26230;51.268;6.534;2024-01-10T06:00:00;25.1;;;22.4;;
40527;SDS011;26230;51.268;6.534;2024-01-10T06:10:01;25.1;;;22.4;;
40527;SDS011;26230;51.268;6.534;2024-01-10T06:20:03;23.3;;;21.0;;
40527;SDS011;26230;51.268;6.534;2024-01-10T06:30:02;23.4;;;21.2;;
40527;SDS011;26230;51.268;6.534;2024-01-10T06:40:00;23.4;;;21.2;;
40527;SDS011;26230;51.268;6.534;2024-01-10T06:50:00;24.8;;;22.2;;
40527;SDS011;26230;51.268;6.534;2024-01-10T07:00:03;24.7;;;22.2;;
40527;SDS011;26230;51.268;6.534;2024-01-10T07:10:00;24.7;;;22.2;;
40527;SDS011;26230;51.268;6.534;2024-01-10T07:20:03;24.8;;;22.3;;
40527;SDS011;26230;51.268;6.534;2024-01-10T07:30:00;27.7;;;22.7;;
40527;SDS011;26230;51.268;6.534;2024-01-10T07:40:00;27.7;;;22.7;;
40527;SDS011;26230;51.268;6.534;2024-01-10T07:50:01;26.2;;;21.9;;
40527;SDS011;26230;51.268;6.534;2024-01-10T08:00:04;25.9;;;23.1;;
40527;SDS011;26230;51.268;6.534;2024-01-10T08:10:00;25.9;;;23.1;;
40527;SDS011;26230;51.268;6.534;2024-01-10T08:20:05;27.4;;;22.9;;
40527;SDS011;26230;51.268;6.534;2024-01-10T08:30:00;24.8;;;22.1;;
40527;SDS011;26230;51.268;6.534;2024-01-10T08:40:06;24.8;;;22.1;;
40527;SDS011;26230;51.268;6.534;2024-01-10T08:50:04;27.6;;;23.0;;
40527;SDS011;26230;51.268;6.534;2024-01-10T09:00:06;26.1;;;21.5;;
40527;SDS011;26230;51.268;6.534;2024-01-10T09:10:02;26.1;;;21.5;;
40527;SDS011;26230;51.268;6.534;2024-01-10T09:20:03;27.5;;;22.6;;
40527;SDS011;26230;51.268;6.534;2024-01-10T09:30:02;26.8;;;24.0;;
40527;SDS011;26230;51.268;6.534;2024-01-10T09:40:00;26.8;;;24.0;;
40527;SDS011;26230;51.268;6.534;2024-01-10T09:50:02;29.1;;;23.9;;
40527;SDS011;26230;51.268;6.534;2024-01-10T10:00:04;29.4;;;25.8;;
40527;SDS011;26230;51.268;6.534;2024-01-10T10:10:00;29.4;;;25.8;;
40527;SDS011;26230;51.268;6.534;2024-01-10T10:20:04;36.7;;;25.9;;
40527;SDS011;26230;51.268;6.534;2024-01-10T10:30:03;27.8;;;24.8;;
40527;SDS011;26230;51.268;6.534;2024-01-10T10:40:00;27.8;;;24.8;;
40527;SDS011;26230;51.268;6.534;2024-01-10T10:50:03;28.8;;;25.7;;
40527;SDS011;26230;51.268;6.534;2024-01-10T11:00:01;33.5;;;23.9;;
40527;SDS011;26230;51.268;6.534;2024-01-10T11:10:02;33.5;;;23.9;;
40527;SDS011;26230;51.268;6.534;2024-01-10T11:30:00;28.0;;;24.5;;
40527;SDS011;26230;51.268;6.534;2024-01-10T11:40:00;28.0;;;24.5;;
40527;SDS011;26230;51.268;6.534;2024-01-10T11:50:07;24.9;;;22.3;;
40527;SDS011;26230;51.268;6.534;2024-01-10T12:00:03;27.6;;;24.6;;
40527;SDS011;26230;51.268;6.534;2024-01-10T12:10:03;27.6;;;24.6;;
40527;SDS011;26230;51.268;6.534;2024-01-10T12:20:03;30.7;;;23.6;;
40527;SDS011;26230;51.268;6.534;2024-01-10T12:30:02;25.8;;;23.0;;
40527;SDS011;26230;51.268;6.534;2024-01-10T12:40:01;25.8;;;23.0;;
40527;SDS011;26230;51.268;6.534;2024-01-10T12:50:00;29.2;;;23.5;;
40527;SDS011;26230;51.268;6.534;2024-01-10T13:00:06;25.5;;;22.8;;
40527;SDS011;26230;51.268;6.534;2024-01-10T13:10:01;25.5;;;22.8;;
40527;SDS011;26230;51.268;6.534;2024-01-10T13:20:00;25.0;;;22.4;;
40527;SDS011;26230;51.268;6.534;2024-01-10T13:30:01;29.7;;;23.8;;
40527;SDS011;26230;51.268;6.534;2024-01-10T13:40:00;29.7;;;23.8;;
40527;SDS011;26230;51.268;6.534;2024-01-10T13:50:00;30.6;;;25.2;;
40527;SDS011;26230;51.268;6.534;2024-01-10T14:00:05;34.4;;;25.9;;
40527;SDS011;26230;51.268;6.534;2024-01-10T14:10:01;34.4;;;25.9;;
40527;SDS011;26230;51.268;6.534;2024-01-10T14:20:00;33.1;;;24.6;;
40527;SDS011;26230;51.268;6.534;2024-01-10T14:30:03;34.0;;;26.2;;
40527;SDS011;26230;51.268;6.534;2024-01-10T14:40:03;34.0;;;26.2;;
40527;SDS011;26230;51.268;6.534;2024-01-10T14:50:01;32.5;;;26.7;;
40527;SDS011;26230;51.268;6.534;2024-01-10T15:00:03;35.1;;;27.9;;
40527;SDS011;26230;51.268;6.534;2024-01-10T15:10:03;35.1;;;27.9;;
40527;SDS011;26230;51.268;6.534;2024-01-10T15:20:03;42.0;;;28.9;;
40527;SDS011;26230;51.268;6.534;2024-01-10T15:30:13;40.5;;;30.5;;
40527;SDS011;26230;51.268;6.534;2024-01-10T15:40:00;40.5;;;30.5;;
40527;SDS011;26230;51.268;6.534;2024-01-10T15:50:03;33.5;;;28.2;;
40527;SDS011;26230;51.268;6.534;2024-01-10T16:00:00;37.9;;;27.2;;
40527;SDS011;26230;51.268;6.534;2024-01-10T16:10:01;37.9;;;27.2;;
40527;SDS011;26230;51.268;6.534;2024-01-10T16:20:01;38.3;;;28.8;;
40527;SDS011;26230;51.268;6.534;2024-01-10T16:30:02;38.4;;;28.9;;
40527;SDS011;26230;51.268;6.534;2024-01-10T16:40:00;38.4;;;28.9;;
40527;SDS011;26230;51.268;6.534;2024-01-10T16:50:02;45.2;;;31.3;;
40527;SDS011;26230;51.268;6.534;2024-01-10T17:00:02;40.5;;;28.0;;
40527;SDS011;26230;51.268;6.534;2024-01-10T17:10:03;40.5;;;28.0;;
40527;SDS011;26230;51.268;6.534;2024-01-10T17:20:03;35.2;;;27.0;;
40527;SDS011;26230;51.268;6.534;2024-01-10T17:30:00;39.0;;;28.2;;
40527;SDS011;26230;51.268;6.534;2024-01-10T17:40:01;39.0;;;28.2;;
40527;SDS011;26230;51.268;6.534;2024-01-10T17:50:01;41.9;;;29.1;;
40527;SDS011;26230;51.268;6.534;2024-01-10T18:00:01;40.2;;;28.7;;
40527;SDS011;26230;51.268;6.534;2024-01-10T18:10:00;40.2;;;28.7;;
40527;SDS011;26230;51.268;6.534;2024-01-10T18:20:03;40.2;;;28.7;;
40527;SDS011;26230;51.268;6.534;2024-01-10T18:30:00;43.7;;;29.3;;
40527;SDS011;26230;51.268;6.534;2024-01-10T18:40:03;43.7;;;29.3;;
40527;SDS011;26230;51.268;6.534;2024-01-10T18:50:01;39.0;;;27.9;;
40527;SDS011;26230;51.268;6.534;2024-01-10T19:00:04;39.3;;;28.6;;
40527;SDS011;26230;51.268;6.534;2024-01-10T19:10:01;39.3;;;28.6;;
40527;SDS011;26230;51.268;6.534;2024-01-10T19:20:01;41.3;;;29.0;;
40527;SDS011;26230;51.268;6.534;2024-01-10T19:30:01;37.9;;;27.4;;
40527;SDS011;26230;51.268;6.534;2024-01-10T19:40:01;37.9;;;27.4;;
40527;SDS011;26230;51.268;6.534;2024-01-10T19:50:01;41.6;;;28.8;;
40527;SDS011;26230;51.268;6.534;2024-01-10T20:00:01;41.0;;;29.9;;
40527;SDS011;26230;51.268;6.534;2024-01-10T20:10:00;41.0;;;29.9;;
40527;SDS011;26230;51.268;6.534;2024-01-10T20:20:00;40.4;;;29.1;;
40527;SDS011;26230;51.268;6.534;2024-01-10T20:30:00;42.4;;;30.1;;
40527;SDS011;26230;51.268;6.534;2024-01-10T20:40:00;42.4;;;30.1;;
40527;SDS011;26230;51.268;6.534;2024-01-10T20:50:01;41.6;;;29.6;;
40527;SDS011;26230;51.268;6.534;2024-01-10T21:00:05;43.1;;;30.3;;
40527;SDS011;26230;51.268;6.534;2024-01-10T21:10:00;43.1;;;30.3;;
40527;SDS011;26230;51.268;6.534;2024-01-10T21:20:01;40.6;;;29.6;;
40527;SDS011;26230;51.268;6.534;2024-01-10T21:30:01;44.3;;;31.2;;
40527;SDS011;26230;51.268;6.534;2024-01-10T21:40:01;44.3;;;31.2;;
40527;SDS011;26230;51.268;6.534;2024-01-10T21:50:01;47.3;;;32.2;;
40527;SDS011;26230;51.268;6.534;2024-01-10T22:00:00;44.9;;;31.4;;
40527;SDS011;26230;51.268;6.534;2024-01-10T22:10:00;44.9;;;31.4;;
40527;SDS011;26230;51.268;6.534;2024-01-10T22:20:00;41.6;;;29.8;;
40527;SDS011;26230;51.268;6.534;2024-01-10T22:30:01;40.4;;;29.9;;
40527;SDS011;26230;51.268;6.534;2024-01-10T22:40:02;40.4;;;29.9;;
40527;SDS011;26230;51.268;6.534;2024-01-10T22:50:00;41.8;;;30.1;;
40527;SDS011;26230;51.268;6.534;2024-01-10T23:00:08;45.3;;;31.3;;
40527;SDS011;26230;51.268;6.534;2024-01-10T23:10:00;45.3;;;31.3;;
40527;SDS011;26230;51.268;6.534;2024-01-10T23:20:01;45.5;;;33.6;;
40527;SDS011;26230;51.268;6.534;2024-01-10T23:30:04;48.7;;;34.4;;
40527;SDS011;26230;51.268;6.534;2024-01-10T23:40:03;48.7;;;34.4;;
40527;SDS011;26230;51.268;6.534;2024-01-10T23:50:00;45.7;;;35.2;;
